Check out our new PWSWeather beta!
PWSweather.com
Personal Weather Stations
Station Observations
KFLSTJOH36
Aberdeen Highland Point, Saint Johns, FL 32259

Aberdeen Highland PointSaint Johns, FL 32259

Lat: 30.082981, Lon: -81.59522

Elevation: 60

Station Type: Acurite 5-in-1 Weather Sensor

High Low Average
Temperature 76.8°F24.9°C 65.1°F18.4°C 69.8°F21.0°C
Dew Point 64.1°F17.8°C 50.3°F10.2°C 54.9°F12.7°C
Winds 19.0 mph 30.6 kmh Calm Calm 7.0 mph E11.3 kmh E
Wind Gusts -- -- --
Humidity 70% 49% 60%
Pressure 30.59 in1035.9 mb 30.42 in1030.1 mb -
Precipitation 0.00 in0.0 mm - -
Hour Temp Dew Point Humidity Winds Wind Gusts Pressure Precip Precip Rate Daily Precip Total
12:00 AM 76.8°F24.9°C 64.1°F17.8°C 65% 5.0 mph ENE8.0 kmh ENE -- 30.42 in1030.1 mb 0.00 in0.0 mm 0.00 in0.0 mm 0.00 in0.0 mm
12:05 AM 74.3°F23.5°C 62.6°F17.0°C 67% 7.0 mph NE11.3 kmh NE -- 30.42 in1030.1 mb 0.00 in0.0 mm 0.00 in0.0 mm 0.00 in0.0 mm
12:10 AM 75.9°F24.4°C 62.4°F16.9°C 63% 4.0 mph NE6.4 kmh NE -- 30.42 in1030.1 mb 0.00 in0.0 mm 0.00 in0.0 mm 0.00 in0.0 mm
12:15 AM 76.3°F24.6°C 61.3°F16.3°C 60% 4.0 mph ENE6.4 kmh ENE -- 30.42 in1030.1 mb 0.00 in0.0 mm 0.00 in0.0 mm 0.00 in0.0 mm
12:20 AM 76.8°F24.9°C 60.9°F16.1°C 58% 3.0 mph NE4.8 kmh NE -- 30.42 in1030.1 mb 0.00 in0.0 mm 0.00 in0.0 mm 0.00 in0.0 mm
12:25 AM 76.3°F24.6°C 59.4°F15.2°C 56% 6.0 mph 9.7 kmh -- 30.43 in1030.5 mb 0.00 in0.0 mm 0.00 in0.0 mm 0.00 in0.0 mm
12:30 AM 75.4°F24.1°C 58.1°F14.5°C 55% 7.0 mph NNE11.3 kmh NNE -- 30.43 in1030.5 mb 0.00 in0.0 mm 0.00 in0.0 mm 0.00 in0.0 mm
12:35 AM 76.1°F24.5°C 57.7°F14.3°C 53% 5.0 mph NNE8.0 kmh NNE -- 30.43 in1030.5 mb 0.00 in0.0 mm 0.00 in0.0 mm 0.00 in0.0 mm
12:40 AM 75.9°F24.4°C 57.0°F13.9°C 52% 4.0 mph 6.4 kmh -- 30.43 in1030.5 mb 0.00 in0.0 mm 0.00 in0.0 mm 0.00 in0.0 mm
12:45 AM 75.9°F24.4°C 56.5°F13.6°C 51% 4.0 mph NNE6.4 kmh NNE -- 30.43 in1030.5 mb 0.00 in0.0 mm 0.00 in0.0 mm 0.00 in0.0 mm
12:50 AM 75.6°F24.2°C 56.7°F13.7°C 52% 5.0 mph 8.0 kmh -- 30.43 in1030.5 mb 0.00 in0.0 mm 0.00 in0.0 mm 0.00 in0.0 mm
12:55 AM 75.0°F23.9°C 56.2°F13.4°C 52% 8.0 mph ENE12.9 kmh ENE -- 30.43 in1030.5 mb 0.00 in0.0 mm 0.00 in0.0 mm 0.00 in0.0 mm
01:00 AM 75.0°F23.9°C 56.2°F13.4°C 52% 6.0 mph NE9.7 kmh NE -- 30.43 in1030.5 mb 0.00 in0.0 mm 0.00 in0.0 mm 0.00 in0.0 mm
01:05 AM 74.8°F23.8°C 56.0°F13.3°C 52% 9.0 mph NE14.5 kmh NE -- 30.43 in1030.5 mb 0.00 in0.0 mm 0.00 in0.0 mm 0.00 in0.0 mm
01:10 AM 74.5°F23.6°C 56.2°F13.4°C 53% 5.0 mph NNE8.0 kmh NNE -- 30.43 in1030.5 mb 0.00 in0.0 mm 0.00 in0.0 mm 0.00 in0.0 mm
01:15 AM 75.4°F24.1°C 57.0°F13.9°C 53% 2.0 mph NE3.2 kmh NE -- 30.43 in1030.5 mb 0.00 in0.0 mm 0.00 in0.0 mm 0.00 in0.0 mm
01:20 AM 75.4°F24.1°C 56.5°F13.6°C 52% 6.0 mph NNE9.7 kmh NNE -- 30.43 in1030.5 mb 0.00 in0.0 mm 0.00 in0.0 mm 0.00 in0.0 mm
01:25 AM 68.7°F20.4°C 55.6°F13.1°C 63% 7.0 mph NE11.3 kmh NE -- 30.43 in1030.5 mb 0.00 in0.0 mm 0.00 in0.0 mm 0.00 in0.0 mm
01:30 AM 68.2°F20.1°C 55.5°F13.1°C 64% 9.0 mph ENE14.5 kmh ENE -- 30.43 in1030.5 mb 0.00 in0.0 mm 0.00 in0.0 mm 0.00 in0.0 mm
01:35 AM 68.4°F20.2°C 56.1°F13.4°C 65% 5.0 mph NNW8.0 kmh NNW -- 30.43 in1030.5 mb 0.00 in0.0 mm 0.00 in0.0 mm 0.00 in0.0 mm
01:40 AM 67.8°F19.9°C 56.4°F13.6°C 67% 5.0 mph NE8.0 kmh NE -- 30.43 in1030.5 mb 0.00 in0.0 mm 0.00 in0.0 mm 0.00 in0.0 mm
01:45 AM 74.3°F23.5°C 58.5°F14.7°C 58% 5.0 mph NNE8.0 kmh NNE -- 30.43 in1030.5 mb 0.00 in0.0 mm 0.00 in0.0 mm 0.00 in0.0 mm
01:50 AM 73.0°F22.8°C 58.7°F14.8°C 61% 3.0 mph NNE4.8 kmh NNE -- 30.43 in1030.5 mb 0.00 in0.0 mm 0.00 in0.0 mm 0.00 in0.0 mm
01:55 AM 73.8°F23.2°C 59.0°F15.0°C 60% 3.0 mph NNW4.8 kmh NNW -- 30.43 in1030.5 mb 0.00 in0.0 mm 0.00 in0.0 mm 0.00 in0.0 mm
02:00 AM 72.7°F22.6°C 58.9°F14.9°C 62% 4.0 mph ENE6.4 kmh ENE -- 30.43 in1030.5 mb 0.00 in0.0 mm 0.00 in0.0 mm 0.00 in0.0 mm
02:05 AM 73.2°F22.9°C 59.4°F15.2°C 62% 8.0 mph ENE12.9 kmh ENE -- 30.44 in1030.8 mb 0.00 in0.0 mm 0.00 in0.0 mm 0.00 in0.0 mm
02:10 AM 73.2°F22.9°C 59.8°F15.4°C 63% 5.0 mph NNE8.0 kmh NNE -- 30.43 in1030.5 mb 0.00 in0.0 mm 0.00 in0.0 mm 0.00 in0.0 mm
02:15 AM 73.0°F22.8°C 59.7°F15.4°C 63% 4.0 mph NE6.4 kmh NE -- 30.43 in1030.5 mb 0.00 in0.0 mm 0.00 in0.0 mm 0.00 in0.0 mm
02:20 AM 72.9°F22.7°C 59.9°F15.5°C 64% 3.0 mph NE4.8 kmh NE -- 30.43 in1030.5 mb 0.00 in0.0 mm 0.00 in0.0 mm 0.00 in0.0 mm
02:25 AM 72.5°F22.5°C 59.6°F15.3°C 64% 5.0 mph NE8.0 kmh NE -- 30.43 in1030.5 mb 0.00 in0.0 mm 0.00 in0.0 mm 0.00 in0.0 mm
02:30 AM 72.0°F22.2°C 59.1°F15.1°C 64% 5.0 mph NNE8.0 kmh NNE -- 30.44 in1030.8 mb 0.00 in0.0 mm 0.00 in0.0 mm 0.00 in0.0 mm
02:35 AM 72.3°F22.4°C 58.5°F14.7°C 62% 5.0 mph NNE8.0 kmh NNE -- 30.44 in1030.8 mb 0.00 in0.0 mm 0.00 in0.0 mm 0.00 in0.0 mm
02:40 AM 72.3°F22.4°C 59.0°F15.0°C 63% 4.0 mph WNW6.4 kmh WNW -- 30.43 in1030.5 mb 0.00 in0.0 mm 0.00 in0.0 mm 0.00 in0.0 mm
02:45 AM 72.5°F22.5°C 58.2°F14.6°C 61% 4.0 mph NW6.4 kmh NW -- 30.43 in1030.5 mb 0.00 in0.0 mm 0.00 in0.0 mm 0.00 in0.0 mm
02:50 AM 72.7°F22.6°C 57.9°F14.4°C 60% 4.0 mph NNE6.4 kmh NNE -- 30.44 in1030.8 mb 0.00 in0.0 mm 0.00 in0.0 mm 0.00 in0.0 mm
02:55 AM 72.7°F22.6°C 57.9°F14.4°C 60% 4.0 mph NE6.4 kmh NE -- 30.43 in1030.5 mb 0.00 in0.0 mm 0.00 in0.0 mm 0.00 in0.0 mm
03:00 AM 72.3°F22.4°C 57.1°F13.9°C 59% 4.0 mph NE6.4 kmh NE -- 30.43 in1030.5 mb 0.00 in0.0 mm 0.00 in0.0 mm 0.00 in0.0 mm
03:05 AM 72.5°F22.5°C 55.9°F13.3°C 56% 6.0 mph ENE9.7 kmh ENE -- 30.44 in1030.8 mb 0.00 in0.0 mm 0.00 in0.0 mm 0.00 in0.0 mm
03:10 AM 72.0°F22.2°C 53.3°F11.8°C 52% 8.0 mph NE12.9 kmh NE -- 30.44 in1030.8 mb 0.00 in0.0 mm 0.00 in0.0 mm 0.00 in0.0 mm
03:15 AM 71.8°F22.1°C 52.6°F11.4°C 51% 6.0 mph NE9.7 kmh NE -- 30.44 in1030.8 mb 0.00 in0.0 mm 0.00 in0.0 mm 0.00 in0.0 mm
03:20 AM 72.3°F22.4°C 52.0°F11.1°C 49% 5.0 mph NNW8.0 kmh NNW -- 30.44 in1030.8 mb 0.00 in0.0 mm 0.00 in0.0 mm 0.00 in0.0 mm
03:25 AM 71.6°F22.0°C 51.9°F11.1°C 50% 6.0 mph NE9.7 kmh NE -- 30.44 in1030.8 mb 0.00 in0.0 mm 0.00 in0.0 mm 0.00 in0.0 mm
03:30 AM 71.8°F22.1°C 52.1°F11.2°C 50% 7.0 mph ENE11.3 kmh ENE -- 30.44 in1030.8 mb 0.00 in0.0 mm 0.00 in0.0 mm 0.00 in0.0 mm
03:35 AM 72.1°F22.3°C 52.4°F11.3°C 50% 8.0 mph ENE12.9 kmh ENE -- 30.44 in1030.8 mb 0.00 in0.0 mm 0.00 in0.0 mm 0.00 in0.0 mm
03:40 AM 71.4°F21.9°C 52.8°F11.6°C 52% 3.0 mph 4.8 kmh -- 30.44 in1030.8 mb 0.00 in0.0 mm 0.00 in0.0 mm 0.00 in0.0 mm
03:45 AM 70.7°F21.5°C 52.7°F11.5°C 53% 6.0 mph NW9.7 kmh NW -- 30.44 in1030.8 mb 0.00 in0.0 mm 0.00 in0.0 mm 0.00 in0.0 mm
03:50 AM 71.2°F21.8°C 53.2°F11.8°C 53% 3.0 mph NNE4.8 kmh NNE -- 30.44 in1030.8 mb 0.00 in0.0 mm 0.00 in0.0 mm 0.00 in0.0 mm
03:55 AM 71.1°F21.7°C 53.5°F11.9°C 54% 6.0 mph ENE9.7 kmh ENE -- 30.44 in1030.8 mb 0.00 in0.0 mm 0.00 in0.0 mm 0.00 in0.0 mm
04:00 AM 71.1°F21.7°C 53.5°F11.9°C 54% 2.0 mph NNE3.2 kmh NNE -- 30.44 in1030.8 mb 0.00 in0.0 mm 0.00 in0.0 mm 0.00 in0.0 mm
04:05 AM 70.5°F21.4°C 53.0°F11.7°C 54% 6.0 mph ENE9.7 kmh ENE -- 30.44 in1030.8 mb 0.00 in0.0 mm 0.00 in0.0 mm 0.00 in0.0 mm
04:10 AM 71.4°F21.9°C 53.3°F11.8°C 53% 5.0 mph E8.0 kmh E -- 30.44 in1030.8 mb 0.00 in0.0 mm 0.00 in0.0 mm 0.00 in0.0 mm
04:15 AM 70.3°F21.3°C 52.8°F11.6°C 54% 3.0 mph ENE4.8 kmh ENE -- 30.44 in1030.8 mb 0.00 in0.0 mm 0.00 in0.0 mm 0.00 in0.0 mm
04:20 AM 70.9°F21.6°C 52.8°F11.6°C 53% 7.0 mph ENE11.3 kmh ENE -- 30.44 in1030.8 mb 0.00 in0.0 mm 0.00 in0.0 mm 0.00 in0.0 mm
04:25 AM 69.8°F21.0°C 51.8°F11.0°C 53% 5.0 mph NNE8.0 kmh NNE -- 30.44 in1030.8 mb 0.00 in0.0 mm 0.00 in0.0 mm 0.00 in0.0 mm
04:30 AM 70.0°F21.1°C 52.0°F11.1°C 53% 5.0 mph NE8.0 kmh NE -- 30.44 in1030.8 mb 0.00 in0.0 mm 0.00 in0.0 mm 0.00 in0.0 mm
04:35 AM 70.0°F21.1°C 52.0°F11.1°C 53% 5.0 mph ENE8.0 kmh ENE -- 30.45 in1031.2 mb 0.00 in0.0 mm 0.00 in0.0 mm 0.00 in0.0 mm
04:40 AM 69.8°F21.0°C 51.8°F11.0°C 53% 2.0 mph ENE3.2 kmh ENE -- 30.45 in1031.2 mb 0.00 in0.0 mm 0.00 in0.0 mm 0.00 in0.0 mm
04:45 AM 69.4°F20.8°C 52.0°F11.1°C 54% 9.0 mph ENE14.5 kmh ENE -- 30.45 in1031.2 mb 0.00 in0.0 mm 0.00 in0.0 mm 0.00 in0.0 mm
04:50 AM 70.0°F21.1°C 52.0°F11.1°C 53% 7.0 mph E11.3 kmh E -- 30.45 in1031.2 mb 0.00 in0.0 mm 0.00 in0.0 mm 0.00 in0.0 mm
04:55 AM 69.8°F21.0°C 52.3°F11.3°C 54% 4.0 mph ENE6.4 kmh ENE -- 30.45 in1031.2 mb 0.00 in0.0 mm 0.00 in0.0 mm 0.00 in0.0 mm
05:00 AM 69.6°F20.9°C 51.7°F10.9°C 53% 3.0 mph NNE4.8 kmh NNE -- 30.46 in1031.5 mb 0.00 in0.0 mm 0.00 in0.0 mm 0.00 in0.0 mm
05:05 AM 68.9°F20.5°C 51.5°F10.8°C 54% 3.0 mph NE4.8 kmh NE -- 30.46 in1031.5 mb 0.00 in0.0 mm 0.00 in0.0 mm 0.00 in0.0 mm
05:10 AM 68.5°F20.3°C 51.2°F10.7°C 54% 4.0 mph NE6.4 kmh NE -- 30.46 in1031.5 mb 0.00 in0.0 mm 0.00 in0.0 mm 0.00 in0.0 mm
05:15 AM 69.3°F20.7°C 51.8°F11.0°C 54% 6.0 mph NNE9.7 kmh NNE -- 30.46 in1031.5 mb 0.00 in0.0 mm 0.00 in0.0 mm 0.00 in0.0 mm
05:20 AM 69.3°F20.7°C 51.3°F10.7°C 53% 5.0 mph NE8.0 kmh NE -- 30.46 in1031.5 mb 0.00 in0.0 mm 0.00 in0.0 mm 0.00 in0.0 mm
05:25 AM 68.5°F20.3°C 50.7°F10.4°C 53% 6.0 mph NW9.7 kmh NW -- 30.47 in1031.8 mb 0.00 in0.0 mm 0.00 in0.0 mm 0.00 in0.0 mm
05:30 AM 68.9°F20.5°C 51.0°F10.6°C 53% 6.0 mph NNW9.7 kmh NNW -- 30.47 in1031.8 mb 0.00 in0.0 mm 0.00 in0.0 mm 0.00 in0.0 mm
05:35 AM 68.5°F20.3°C 50.7°F10.4°C 53% 9.0 mph ENE14.5 kmh ENE -- 30.47 in1031.8 mb 0.00 in0.0 mm 0.00 in0.0 mm 0.00 in0.0 mm
05:40 AM 69.3°F20.7°C 50.8°F10.4°C 52% 4.0 mph ENE6.4 kmh ENE -- 30.47 in1031.8 mb 0.00 in0.0 mm 0.00 in0.0 mm 0.00 in0.0 mm
05:45 AM 70.3°F21.3°C 50.7°F10.4°C 50% 5.0 mph NNE8.0 kmh NNE -- 30.47 in1031.8 mb 0.00 in0.0 mm 0.00 in0.0 mm 0.00 in0.0 mm
05:50 AM 69.4°F20.8°C 51.0°F10.6°C 52% 7.0 mph NE11.3 kmh NE -- 30.47 in1031.8 mb 0.00 in0.0 mm 0.00 in0.0 mm 0.00 in0.0 mm
05:55 AM 69.4°F20.8°C 51.0°F10.6°C 52% 3.0 mph NNE4.8 kmh NNE -- 30.47 in1031.8 mb 0.00 in0.0 mm 0.00 in0.0 mm 0.00 in0.0 mm
06:00 AM 68.7°F20.4°C 50.3°F10.2°C 52% 8.0 mph ENE12.9 kmh ENE -- 30.47 in1031.8 mb 0.00 in0.0 mm 0.00 in0.0 mm 0.00 in0.0 mm
06:05 AM 69.3°F20.7°C 50.8°F10.4°C 52% 4.0 mph NW6.4 kmh NW -- 30.47 in1031.8 mb 0.00 in0.0 mm 0.00 in0.0 mm 0.00 in0.0 mm
06:10 AM 69.4°F20.8°C 51.0°F10.6°C 52% 6.0 mph NNE9.7 kmh NNE -- 30.48 in1032.2 mb 0.00 in0.0 mm 0.00 in0.0 mm 0.00 in0.0 mm
06:15 AM 69.3°F20.7°C 51.3°F10.7°C 53% 3.0 mph NNE4.8 kmh NNE -- 30.48 in1032.2 mb 0.00 in0.0 mm 0.00 in0.0 mm 0.00 in0.0 mm
06:20 AM 69.4°F20.8°C 51.0°F10.6°C 52% 4.0 mph 6.4 kmh -- 30.48 in1032.2 mb 0.00 in0.0 mm 0.00 in0.0 mm 0.00 in0.0 mm
06:25 AM 69.1°F20.6°C 51.2°F10.7°C 53% 3.0 mph ENE4.8 kmh ENE -- 30.49 in1032.5 mb 0.00 in0.0 mm 0.00 in0.0 mm 0.00 in0.0 mm
06:30 AM 68.9°F20.5°C 51.5°F10.8°C 54% 8.0 mph ESE12.9 kmh ESE -- 30.49 in1032.5 mb 0.00 in0.0 mm 0.00 in0.0 mm 0.00 in0.0 mm
06:35 AM 68.7°F20.4°C 51.3°F10.7°C 54% 5.0 mph ENE8.0 kmh ENE -- 30.49 in1032.5 mb 0.00 in0.0 mm 0.00 in0.0 mm 0.00 in0.0 mm
06:40 AM 69.3°F20.7°C 52.3°F11.3°C 55% 4.0 mph E6.4 kmh E -- 30.49 in1032.5 mb 0.00 in0.0 mm 0.00 in0.0 mm 0.00 in0.0 mm
06:45 AM 68.9°F20.5°C 52.0°F11.1°C 55% 3.0 mph NW4.8 kmh NW -- 30.50 in1032.8 mb 0.00 in0.0 mm 0.00 in0.0 mm 0.00 in0.0 mm
06:50 AM 68.9°F20.5°C 52.5°F11.4°C 56% 6.0 mph E9.7 kmh E -- 30.50 in1032.8 mb 0.00 in0.0 mm 0.00 in0.0 mm 0.00 in0.0 mm
06:55 AM 68.2°F20.1°C 51.8°F11.0°C 56% 7.0 mph E11.3 kmh E -- 30.50 in1032.8 mb 0.00 in0.0 mm 0.00 in0.0 mm 0.00 in0.0 mm
07:00 AM 68.5°F20.3°C 52.1°F11.2°C 56% 6.0 mph ENE9.7 kmh ENE -- 30.50 in1032.8 mb 0.00 in0.0 mm 0.00 in0.0 mm 0.00 in0.0 mm
07:05 AM 68.0°F20.0°C 52.1°F11.2°C 57% 9.0 mph E14.5 kmh E -- 30.50 in1032.8 mb 0.00 in0.0 mm 0.00 in0.0 mm 0.00 in0.0 mm
07:10 AM 68.0°F20.0°C 52.1°F11.2°C 57% 4.0 mph NNW6.4 kmh NNW -- 30.51 in1033.2 mb 0.00 in0.0 mm 0.00 in0.0 mm 0.00 in0.0 mm
07:15 AM 68.4°F20.2°C 52.5°F11.4°C 57% 2.0 mph NNE3.2 kmh NNE -- 30.51 in1033.2 mb 0.00 in0.0 mm 0.00 in0.0 mm 0.00 in0.0 mm
07:20 AM 68.5°F20.3°C 52.6°F11.4°C 57% 4.0 mph NNE6.4 kmh NNE -- 30.51 in1033.2 mb 0.00 in0.0 mm 0.00 in0.0 mm 0.00 in0.0 mm
07:25 AM 68.0°F20.0°C 52.1°F11.2°C 57% 9.0 mph WNW14.5 kmh WNW -- 30.51 in1033.2 mb 0.00 in0.0 mm 0.00 in0.0 mm 0.00 in0.0 mm
07:30 AM 68.7°F20.4°C 52.3°F11.3°C 56% 4.0 mph NE6.4 kmh NE -- 30.51 in1033.2 mb 0.00 in0.0 mm 0.00 in0.0 mm 0.00 in0.0 mm
07:35 AM 67.8°F19.9°C 52.0°F11.1°C 57% 6.0 mph ENE9.7 kmh ENE -- 30.51 in1033.2 mb 0.00 in0.0 mm 0.00 in0.0 mm 0.00 in0.0 mm
07:40 AM 68.4°F20.2°C 52.0°F11.1°C 56% 7.0 mph E11.3 kmh E -- 30.52 in1033.5 mb 0.00 in0.0 mm 0.00 in0.0 mm 0.00 in0.0 mm
07:45 AM 68.5°F20.3°C 52.1°F11.2°C 56% 2.0 mph NE3.2 kmh NE -- 30.52 in1033.5 mb 0.00 in0.0 mm 0.00 in0.0 mm 0.00 in0.0 mm
07:50 AM 68.5°F20.3°C 52.1°F11.2°C 56% 3.0 mph NW4.8 kmh NW -- 30.52 in1033.5 mb 0.00 in0.0 mm 0.00 in0.0 mm 0.00 in0.0 mm
07:55 AM 67.8°F19.9°C 52.0°F11.1°C 57% 6.0 mph ENE9.7 kmh ENE -- 30.53 in1033.9 mb 0.00 in0.0 mm 0.00 in0.0 mm 0.00 in0.0 mm
08:00 AM 66.7°F19.3°C 51.9°F11.1°C 59% 6.0 mph NE9.7 kmh NE -- 30.53 in1033.9 mb 0.00 in0.0 mm 0.00 in0.0 mm 0.00 in0.0 mm
08:05 AM 66.6°F19.2°C 51.7°F10.9°C 59% 5.0 mph 8.0 kmh -- 30.53 in1033.9 mb 0.00 in0.0 mm 0.00 in0.0 mm 0.00 in0.0 mm
08:10 AM 67.1°F19.5°C 52.2°F11.2°C 59% 7.0 mph NE11.3 kmh NE -- 30.53 in1033.9 mb 0.00 in0.0 mm 0.00 in0.0 mm 0.00 in0.0 mm
08:15 AM 67.1°F19.5°C 51.8°F11.0°C 58% 7.0 mph E11.3 kmh E -- 30.53 in1033.9 mb 0.00 in0.0 mm 0.00 in0.0 mm 0.00 in0.0 mm
08:20 AM 67.5°F19.7°C 51.6°F10.9°C 57% 6.0 mph NNW9.7 kmh NNW -- 30.53 in1033.9 mb 0.00 in0.0 mm 0.00 in0.0 mm 0.00 in0.0 mm
08:25 AM 66.9°F19.4°C 51.6°F10.9°C 58% 5.0 mph NE8.0 kmh NE -- 30.53 in1033.9 mb 0.00 in0.0 mm 0.00 in0.0 mm 0.00 in0.0 mm
08:30 AM 67.1°F19.5°C 51.8°F11.0°C 58% 4.0 mph WNW6.4 kmh WNW -- 30.54 in1034.2 mb 0.00 in0.0 mm 0.00 in0.0 mm 0.00 in0.0 mm
08:35 AM 67.3°F19.6°C 51.9°F11.1°C 58% 6.0 mph ENE9.7 kmh ENE -- 30.54 in1034.2 mb 0.00 in0.0 mm 0.00 in0.0 mm 0.00 in0.0 mm
08:40 AM 66.9°F19.4°C 51.6°F10.9°C 58% 10.0 mph NNE16.1 kmh NNE -- 30.54 in1034.2 mb 0.00 in0.0 mm 0.00 in0.0 mm 0.00 in0.0 mm
08:45 AM 67.5°F19.7°C 52.1°F11.2°C 58% 5.0 mph NE8.0 kmh NE -- 30.54 in1034.2 mb 0.00 in0.0 mm 0.00 in0.0 mm 0.00 in0.0 mm
08:50 AM 67.8°F19.9°C 52.4°F11.3°C 58% 5.0 mph ENE8.0 kmh ENE -- 30.55 in1034.5 mb 0.00 in0.0 mm 0.00 in0.0 mm 0.00 in0.0 mm
08:55 AM 67.8°F19.9°C 52.4°F11.3°C 58% 4.0 mph NE6.4 kmh NE -- 30.54 in1034.2 mb 0.00 in0.0 mm 0.00 in0.0 mm 0.00 in0.0 mm
09:00 AM 68.2°F20.1°C 52.3°F11.3°C 57% 5.0 mph NNE8.0 kmh NNE -- 30.55 in1034.5 mb 0.00 in0.0 mm 0.00 in0.0 mm 0.00 in0.0 mm
09:05 AM 68.5°F20.3°C 52.6°F11.4°C 57% 8.0 mph ENE12.9 kmh ENE -- 30.55 in1034.5 mb 0.00 in0.0 mm 0.00 in0.0 mm 0.00 in0.0 mm
09:10 AM 68.7°F20.4°C 52.3°F11.3°C 56% 4.0 mph ENE6.4 kmh ENE -- 30.55 in1034.5 mb 0.00 in0.0 mm 0.00 in0.0 mm 0.00 in0.0 mm
09:15 AM 68.9°F20.5°C 52.5°F11.4°C 56% 6.0 mph ENE9.7 kmh ENE -- 30.55 in1034.5 mb 0.00 in0.0 mm 0.00 in0.0 mm 0.00 in0.0 mm
09:20 AM 69.3°F20.7°C 52.3°F11.3°C 55% 10.0 mph E16.1 kmh E -- 30.55 in1034.5 mb 0.00 in0.0 mm 0.00 in0.0 mm 0.00 in0.0 mm
09:25 AM 68.9°F20.5°C 52.5°F11.4°C 56% 12.0 mph NE19.3 kmh NE -- 30.55 in1034.5 mb 0.00 in0.0 mm 0.00 in0.0 mm 0.00 in0.0 mm
09:30 AM 69.6°F20.9°C 52.7°F11.5°C 55% 7.0 mph NNE11.3 kmh NNE -- 30.56 in1034.9 mb 0.00 in0.0 mm 0.00 in0.0 mm 0.00 in0.0 mm
09:35 AM 69.8°F21.0°C 52.3°F11.3°C 54% 14.0 mph ENE22.5 kmh ENE -- 30.56 in1034.9 mb 0.00 in0.0 mm 0.00 in0.0 mm 0.00 in0.0 mm
09:40 AM 69.3°F20.7°C 51.8°F11.0°C 54% 12.0 mph ENE19.3 kmh ENE -- 30.57 in1035.2 mb 0.00 in0.0 mm 0.00 in0.0 mm 0.00 in0.0 mm
09:45 AM 70.0°F21.1°C 52.5°F11.4°C 54% 16.0 mph ENE25.7 kmh ENE -- 30.57 in1035.2 mb 0.00 in0.0 mm 0.00 in0.0 mm 0.00 in0.0 mm
09:50 AM 69.8°F21.0°C 51.8°F11.0°C 53% 7.0 mph E11.3 kmh E -- 30.57 in1035.2 mb 0.00 in0.0 mm 0.00 in0.0 mm 0.00 in0.0 mm
09:55 AM 69.8°F21.0°C 52.3°F11.3°C 54% 10.0 mph E16.1 kmh E -- 30.57 in1035.2 mb 0.00 in0.0 mm 0.00 in0.0 mm 0.00 in0.0 mm
10:00 AM 69.8°F21.0°C 52.8°F11.6°C 55% 11.0 mph E17.7 kmh E -- 30.57 in1035.2 mb 0.00 in0.0 mm 0.00 in0.0 mm 0.00 in0.0 mm
10:05 AM 70.0°F21.1°C 52.5°F11.4°C 54% 11.0 mph ENE17.7 kmh ENE -- 30.57 in1035.2 mb 0.00 in0.0 mm 0.00 in0.0 mm 0.00 in0.0 mm
10:10 AM 70.5°F21.4°C 52.5°F11.4°C 53% 9.0 mph NE14.5 kmh NE -- 30.57 in1035.2 mb 0.00 in0.0 mm 0.00 in0.0 mm 0.00 in0.0 mm
10:15 AM 69.6°F20.9°C 52.2°F11.2°C 54% 6.0 mph NNE9.7 kmh NNE -- 30.57 in1035.2 mb 0.00 in0.0 mm 0.00 in0.0 mm 0.00 in0.0 mm
10:20 AM 69.8°F21.0°C 52.3°F11.3°C 54% 6.0 mph NE9.7 kmh NE -- 30.58 in1035.6 mb 0.00 in0.0 mm 0.00 in0.0 mm 0.00 in0.0 mm
10:25 AM 70.0°F21.1°C 53.0°F11.7°C 55% 13.0 mph E20.9 kmh E -- 30.58 in1035.6 mb 0.00 in0.0 mm 0.00 in0.0 mm 0.00 in0.0 mm
10:30 AM 70.7°F21.5°C 53.2°F11.8°C 54% 10.0 mph ENE16.1 kmh ENE -- 30.58 in1035.6 mb 0.00 in0.0 mm 0.00 in0.0 mm 0.00 in0.0 mm
10:35 AM 70.5°F21.4°C 53.0°F11.7°C 54% 9.0 mph ENE14.5 kmh ENE -- 30.58 in1035.6 mb 0.00 in0.0 mm 0.00 in0.0 mm 0.00 in0.0 mm
10:40 AM 71.2°F21.8°C 53.7°F12.1°C 54% 7.0 mph WNW11.3 kmh WNW -- 30.58 in1035.6 mb 0.00 in0.0 mm 0.00 in0.0 mm 0.00 in0.0 mm
10:45 AM 71.1°F21.7°C 53.5°F11.9°C 54% 5.0 mph NE8.0 kmh NE -- 30.58 in1035.6 mb 0.00 in0.0 mm 0.00 in0.0 mm 0.00 in0.0 mm
10:50 AM 70.5°F21.4°C 53.0°F11.7°C 54% 14.0 mph E22.5 kmh E -- 30.58 in1035.6 mb 0.00 in0.0 mm 0.00 in0.0 mm 0.00 in0.0 mm
10:55 AM 71.6°F22.0°C 54.5°F12.5°C 55% 11.0 mph E17.7 kmh E -- 30.58 in1035.6 mb 0.00 in0.0 mm 0.00 in0.0 mm 0.00 in0.0 mm
11:00 AM 71.4°F21.9°C 54.3°F12.4°C 55% 11.0 mph NW17.7 kmh NW -- 30.58 in1035.6 mb 0.00 in0.0 mm 0.00 in0.0 mm 0.00 in0.0 mm
11:05 AM 71.4°F21.9°C 54.8°F12.7°C 56% 8.0 mph NNE12.9 kmh NNE -- 30.59 in1035.9 mb 0.00 in0.0 mm 0.00 in0.0 mm 0.00 in0.0 mm
11:10 AM 71.4°F21.9°C 54.8°F12.7°C 56% 4.0 mph NNE6.4 kmh NNE -- 30.59 in1035.9 mb 0.00 in0.0 mm 0.00 in0.0 mm 0.00 in0.0 mm
11:15 AM 71.4°F21.9°C 54.8°F12.7°C 56% 9.0 mph ENE14.5 kmh ENE -- 30.58 in1035.6 mb 0.00 in0.0 mm 0.00 in0.0 mm 0.00 in0.0 mm
11:20 AM 71.2°F21.8°C 54.7°F12.6°C 56% 11.0 mph NNE17.7 kmh NNE -- 30.59 in1035.9 mb 0.00 in0.0 mm 0.00 in0.0 mm 0.00 in0.0 mm
11:25 AM 71.4°F21.9°C 54.8°F12.7°C 56% 4.0 mph 6.4 kmh -- 30.58 in1035.6 mb 0.00 in0.0 mm 0.00 in0.0 mm 0.00 in0.0 mm
11:30 AM 72.3°F22.4°C 55.2°F12.9°C 55% 14.0 mph NE22.5 kmh NE -- 30.58 in1035.6 mb 0.00 in0.0 mm 0.00 in0.0 mm 0.00 in0.0 mm
11:35 AM 72.3°F22.4°C 55.2°F12.9°C 55% 10.0 mph NE16.1 kmh NE -- 30.58 in1035.6 mb 0.00 in0.0 mm 0.00 in0.0 mm 0.00 in0.0 mm
11:40 AM 71.4°F21.9°C 54.8°F12.7°C 56% 5.0 mph NNE8.0 kmh NNE -- 30.58 in1035.6 mb 0.00 in0.0 mm 0.00 in0.0 mm 0.00 in0.0 mm
11:45 AM 71.4°F21.9°C 54.8°F12.7°C 56% 16.0 mph NE25.7 kmh NE -- 30.58 in1035.6 mb 0.00 in0.0 mm 0.00 in0.0 mm 0.00 in0.0 mm
11:50 AM 71.6°F22.0°C 55.0°F12.8°C 56% 12.0 mph NE19.3 kmh NE -- 30.58 in1035.6 mb 0.00 in0.0 mm 0.00 in0.0 mm 0.00 in0.0 mm
11:55 AM 72.0°F22.2°C 55.4°F13.0°C 56% 7.0 mph NE11.3 kmh NE -- 30.58 in1035.6 mb 0.00 in0.0 mm 0.00 in0.0 mm 0.00 in0.0 mm
12:00 PM 73.0°F22.8°C 55.9°F13.3°C 55% 10.0 mph ENE16.1 kmh ENE -- 30.58 in1035.6 mb 0.00 in0.0 mm 0.00 in0.0 mm 0.00 in0.0 mm
12:05 PM 71.8°F22.1°C 55.2°F12.9°C 56% 6.0 mph NE9.7 kmh NE -- 30.57 in1035.2 mb 0.00 in0.0 mm 0.00 in0.0 mm 0.00 in0.0 mm
12:10 PM 72.1°F22.3°C 56.0°F13.3°C 57% 4.0 mph NNE6.4 kmh NNE -- 30.57 in1035.2 mb 0.00 in0.0 mm 0.00 in0.0 mm 0.00 in0.0 mm
12:15 PM 71.4°F21.9°C 55.3°F12.9°C 57% 8.0 mph WSW12.9 kmh WSW -- 30.57 in1035.2 mb 0.00 in0.0 mm 0.00 in0.0 mm 0.00 in0.0 mm
12:20 PM 72.7°F22.6°C 56.0°F13.3°C 56% 3.0 mph ENE4.8 kmh ENE -- 30.57 in1035.2 mb 0.00 in0.0 mm 0.00 in0.0 mm 0.00 in0.0 mm
12:25 PM 72.9°F22.7°C 56.2°F13.4°C 56% 8.0 mph NNW12.9 kmh NNW -- 30.57 in1035.2 mb 0.00 in0.0 mm 0.00 in0.0 mm 0.00 in0.0 mm
12:30 PM 71.8°F22.1°C 55.7°F13.2°C 57% 10.0 mph NE16.1 kmh NE -- 30.57 in1035.2 mb 0.00 in0.0 mm 0.00 in0.0 mm 0.00 in0.0 mm
12:35 PM 71.2°F21.8°C 55.6°F13.1°C 58% 7.0 mph NE11.3 kmh NE -- 30.57 in1035.2 mb 0.00 in0.0 mm 0.00 in0.0 mm 0.00 in0.0 mm
12:40 PM 72.3°F22.4°C 56.2°F13.4°C 57% 12.0 mph NE19.3 kmh NE -- 30.57 in1035.2 mb 0.00 in0.0 mm 0.00 in0.0 mm 0.00 in0.0 mm
12:45 PM 72.3°F22.4°C 56.2°F13.4°C 57% 9.0 mph ENE14.5 kmh ENE -- 30.56 in1034.9 mb 0.00 in0.0 mm 0.00 in0.0 mm 0.00 in0.0 mm
12:50 PM 71.8°F22.1°C 56.2°F13.4°C 58% 5.0 mph NNE8.0 kmh NNE -- 30.56 in1034.9 mb 0.00 in0.0 mm 0.00 in0.0 mm 0.00 in0.0 mm
12:55 PM 72.1°F22.3°C 56.5°F13.6°C 58% 12.0 mph E19.3 kmh E -- 30.56 in1034.9 mb 0.00 in0.0 mm 0.00 in0.0 mm 0.00 in0.0 mm
01:00 PM 71.1°F21.7°C 55.9°F13.3°C 59% 10.0 mph ENE16.1 kmh ENE -- 30.56 in1034.9 mb 0.00 in0.0 mm 0.00 in0.0 mm 0.00 in0.0 mm
01:05 PM 71.8°F22.1°C 56.6°F13.7°C 59% 6.0 mph ESE9.7 kmh ESE -- 30.56 in1034.9 mb 0.00 in0.0 mm 0.00 in0.0 mm 0.00 in0.0 mm
01:10 PM 72.0°F22.2°C 56.8°F13.8°C 59% 9.0 mph ENE14.5 kmh ENE -- 30.56 in1034.9 mb 0.00 in0.0 mm 0.00 in0.0 mm 0.00 in0.0 mm
01:15 PM 71.2°F21.8°C 56.6°F13.7°C 60% 7.0 mph 11.3 kmh -- 30.56 in1034.9 mb 0.00 in0.0 mm 0.00 in0.0 mm 0.00 in0.0 mm
01:20 PM 70.5°F21.4°C 56.4°F13.6°C 61% 15.0 mph NE24.1 kmh NE -- 30.56 in1034.9 mb 0.00 in0.0 mm 0.00 in0.0 mm 0.00 in0.0 mm
01:25 PM 69.6°F20.9°C 56.4°F13.6°C 63% 15.0 mph ENE24.1 kmh ENE -- 30.56 in1034.9 mb 0.00 in0.0 mm 0.00 in0.0 mm 0.00 in0.0 mm
01:30 PM 70.0°F21.1°C 56.7°F13.7°C 63% 7.0 mph NE11.3 kmh NE -- 30.56 in1034.9 mb 0.00 in0.0 mm 0.00 in0.0 mm 0.00 in0.0 mm
01:35 PM 68.0°F20.0°C 56.2°F13.4°C 66% 7.0 mph ENE11.3 kmh ENE -- 30.56 in1034.9 mb 0.00 in0.0 mm 0.00 in0.0 mm 0.00 in0.0 mm
01:40 PM 67.8°F19.9°C 56.0°F13.3°C 66% 7.0 mph ENE11.3 kmh ENE -- 30.56 in1034.9 mb 0.00 in0.0 mm 0.00 in0.0 mm 0.00 in0.0 mm
01:45 PM 68.4°F20.2°C 55.6°F13.1°C 64% 14.0 mph E22.5 kmh E -- 30.55 in1034.5 mb 0.00 in0.0 mm 0.00 in0.0 mm 0.00 in0.0 mm
01:50 PM 67.6°F19.8°C 55.4°F13.0°C 65% 12.0 mph NE19.3 kmh NE -- 30.55 in1034.5 mb 0.00 in0.0 mm 0.00 in0.0 mm 0.00 in0.0 mm
01:55 PM 66.6°F19.2°C 54.4°F12.4°C 65% 13.0 mph NE20.9 kmh NE -- 30.56 in1034.9 mb 0.00 in0.0 mm 0.00 in0.0 mm 0.00 in0.0 mm
02:00 PM 66.6°F19.2°C 54.8°F12.7°C 66% 12.0 mph NNE19.3 kmh NNE -- 30.55 in1034.5 mb 0.00 in0.0 mm 0.00 in0.0 mm 0.00 in0.0 mm
02:05 PM 67.8°F19.9°C 55.1°F12.8°C 64% 9.0 mph ESE14.5 kmh ESE -- 30.55 in1034.5 mb 0.00 in0.0 mm 0.00 in0.0 mm 0.00 in0.0 mm
02:10 PM 67.3°F19.6°C 54.6°F12.6°C 64% 6.0 mph 9.7 kmh -- 30.55 in1034.5 mb 0.00 in0.0 mm 0.00 in0.0 mm 0.00 in0.0 mm
02:15 PM 67.5°F19.7°C 54.4°F12.4°C 63% 5.0 mph E8.0 kmh E -- 30.55 in1034.5 mb 0.00 in0.0 mm 0.00 in0.0 mm 0.00 in0.0 mm
02:20 PM 66.9°F19.4°C 54.3°F12.4°C 64% 11.0 mph NE17.7 kmh NE -- 30.54 in1034.2 mb 0.00 in0.0 mm 0.00 in0.0 mm 0.00 in0.0 mm
02:25 PM 67.1°F19.5°C 54.9°F12.7°C 65% 9.0 mph NE14.5 kmh NE -- 30.54 in1034.2 mb 0.00 in0.0 mm 0.00 in0.0 mm 0.00 in0.0 mm
02:30 PM 66.9°F19.4°C 54.7°F12.6°C 65% 14.0 mph ENE22.5 kmh ENE -- 30.54 in1034.2 mb 0.00 in0.0 mm 0.00 in0.0 mm 0.00 in0.0 mm
02:35 PM 66.2°F19.0°C 54.4°F12.4°C 66% 8.0 mph NNW12.9 kmh NNW -- 30.54 in1034.2 mb 0.00 in0.0 mm 0.00 in0.0 mm 0.00 in0.0 mm
02:40 PM 67.5°F19.7°C 55.2°F12.9°C 65% 11.0 mph ENE17.7 kmh ENE -- 30.55 in1034.5 mb 0.00 in0.0 mm 0.00 in0.0 mm 0.00 in0.0 mm
02:45 PM 67.6°F19.8°C 55.0°F12.8°C 64% 18.0 mph NE29.0 kmh NE -- 30.54 in1034.2 mb 0.00 in0.0 mm 0.00 in0.0 mm 0.00 in0.0 mm
02:50 PM 66.9°F19.4°C 54.7°F12.6°C 65% 14.0 mph E22.5 kmh E -- 30.55 in1034.5 mb 0.00 in0.0 mm 0.00 in0.0 mm 0.00 in0.0 mm
02:55 PM 67.3°F19.6°C 55.0°F12.8°C 65% 7.0 mph NNE11.3 kmh NNE -- 30.55 in1034.5 mb 0.00 in0.0 mm 0.00 in0.0 mm 0.00 in0.0 mm
03:00 PM 66.4°F19.1°C 54.6°F12.6°C 66% 9.0 mph ENE14.5 kmh ENE -- 30.55 in1034.5 mb 0.00 in0.0 mm 0.00 in0.0 mm 0.00 in0.0 mm
03:05 PM 66.4°F19.1°C 54.6°F12.6°C 66% 6.0 mph NE9.7 kmh NE -- 30.55 in1034.5 mb 0.00 in0.0 mm 0.00 in0.0 mm 0.00 in0.0 mm
03:10 PM 65.1°F18.4°C 54.2°F12.3°C 68% 7.0 mph NE11.3 kmh NE -- 30.55 in1034.5 mb 0.00 in0.0 mm 0.00 in0.0 mm 0.00 in0.0 mm
03:15 PM 66.6°F19.2°C 54.8°F12.7°C 66% 12.0 mph NNW19.3 kmh NNW -- 30.55 in1034.5 mb 0.00 in0.0 mm 0.00 in0.0 mm 0.00 in0.0 mm
03:20 PM 69.8°F21.0°C 55.7°F13.2°C 61% 8.0 mph ENE12.9 kmh ENE -- 30.55 in1034.5 mb 0.00 in0.0 mm 0.00 in0.0 mm 0.00 in0.0 mm
03:25 PM 70.0°F21.1°C 55.9°F13.3°C 61% 3.0 mph NE4.8 kmh NE -- 30.55 in1034.5 mb 0.00 in0.0 mm 0.00 in0.0 mm 0.00 in0.0 mm
03:30 PM 69.6°F20.9°C 55.5°F13.1°C 61% 9.0 mph NE14.5 kmh NE -- 30.55 in1034.5 mb 0.00 in0.0 mm 0.00 in0.0 mm 0.00 in0.0 mm
03:35 PM 69.1°F20.6°C 55.5°F13.1°C 62% 6.0 mph 9.7 kmh -- 30.55 in1034.5 mb 0.00 in0.0 mm 0.00 in0.0 mm 0.00 in0.0 mm
03:40 PM 67.8°F19.9°C 55.6°F13.1°C 65% 9.0 mph ENE14.5 kmh ENE -- 30.55 in1034.5 mb 0.00 in0.0 mm 0.00 in0.0 mm 0.00 in0.0 mm
03:45 PM 67.3°F19.6°C 55.5°F13.1°C 66% 19.0 mph ENE30.6 kmh ENE -- 30.55 in1034.5 mb 0.00 in0.0 mm 0.00 in0.0 mm 0.00 in0.0 mm
03:50 PM 66.0°F18.9°C 55.5°F13.1°C 69% 4.0 mph NE6.4 kmh NE -- 30.55 in1034.5 mb 0.00 in0.0 mm 0.00 in0.0 mm 0.00 in0.0 mm
03:55 PM 65.7°F18.7°C 55.1°F12.8°C 69% 8.0 mph NNW12.9 kmh NNW -- 30.55 in1034.5 mb 0.00 in0.0 mm 0.00 in0.0 mm 0.00 in0.0 mm
04:00 PM 66.2°F19.0°C 55.7°F13.2°C 69% 9.0 mph ENE14.5 kmh ENE -- 30.55 in1034.5 mb 0.00 in0.0 mm 0.00 in0.0 mm 0.00 in0.0 mm
04:05 PM 66.6°F19.2°C 55.6°F13.1°C 68% 6.0 mph NNE9.7 kmh NNE -- 30.55 in1034.5 mb 0.00 in0.0 mm 0.00 in0.0 mm 0.00 in0.0 mm
04:10 PM 67.8°F19.9°C 56.0°F13.3°C 66% 7.0 mph NE11.3 kmh NE -- 30.55 in1034.5 mb 0.00 in0.0 mm 0.00 in0.0 mm 0.00 in0.0 mm
04:15 PM 68.4°F20.2°C 56.5°F13.6°C 66% 10.0 mph NNE16.1 kmh NNE -- 30.55 in1034.5 mb 0.00 in0.0 mm 0.00 in0.0 mm 0.00 in0.0 mm
04:20 PM 68.9°F20.5°C 56.6°F13.7°C 65% 8.0 mph NE12.9 kmh NE -- 30.55 in1034.5 mb 0.00 in0.0 mm 0.00 in0.0 mm 0.00 in0.0 mm
04:25 PM 68.7°F20.4°C 56.4°F13.6°C 65% 9.0 mph NW14.5 kmh NW -- 30.55 in1034.5 mb 0.00 in0.0 mm 0.00 in0.0 mm 0.00 in0.0 mm
04:30 PM 68.2°F20.1°C 56.3°F13.5°C 66% 3.0 mph NNE4.8 kmh NNE -- 30.56 in1034.9 mb 0.00 in0.0 mm 0.00 in0.0 mm 0.00 in0.0 mm
04:35 PM 67.8°F19.9°C 56.0°F13.3°C 66% 12.0 mph ENE19.3 kmh ENE -- 30.56 in1034.9 mb 0.00 in0.0 mm 0.00 in0.0 mm 0.00 in0.0 mm
04:40 PM 68.0°F20.0°C 56.2°F13.4°C 66% 7.0 mph NE11.3 kmh NE -- 30.56 in1034.9 mb 0.00 in0.0 mm 0.00 in0.0 mm 0.00 in0.0 mm
04:45 PM 67.8°F19.9°C 56.0°F13.3°C 66% 14.0 mph NNE22.5 kmh NNE -- 30.56 in1034.9 mb 0.00 in0.0 mm 0.00 in0.0 mm 0.00 in0.0 mm
04:50 PM 68.2°F20.1°C 56.7°F13.7°C 67% 12.0 mph E19.3 kmh E -- 30.56 in1034.9 mb 0.00 in0.0 mm 0.00 in0.0 mm 0.00 in0.0 mm
04:55 PM 67.3°F19.6°C 56.3°F13.5°C 68% 13.0 mph E20.9 kmh E -- 30.56 in1034.9 mb 0.00 in0.0 mm 0.00 in0.0 mm 0.00 in0.0 mm
05:00 PM 66.9°F19.4°C 56.0°F13.3°C 68% 11.0 mph E17.7 kmh E -- 30.56 in1034.9 mb 0.00 in0.0 mm 0.00 in0.0 mm 0.00 in0.0 mm
05:05 PM 67.1°F19.5°C 56.1°F13.4°C 68% 6.0 mph E9.7 kmh E -- 30.57 in1035.2 mb 0.00 in0.0 mm 0.00 in0.0 mm 0.00 in0.0 mm
05:10 PM 67.6°F19.8°C 56.6°F13.7°C 68% 8.0 mph NE12.9 kmh NE -- 30.56 in1034.9 mb 0.00 in0.0 mm 0.00 in0.0 mm 0.00 in0.0 mm
05:15 PM 67.3°F19.6°C 56.3°F13.5°C 68% 6.0 mph NE9.7 kmh NE -- 30.56 in1034.9 mb 0.00 in0.0 mm 0.00 in0.0 mm 0.00 in0.0 mm
05:20 PM 67.5°F19.7°C 56.1°F13.4°C 67% 3.0 mph NE4.8 kmh NE -- 30.56 in1034.9 mb 0.00 in0.0 mm 0.00 in0.0 mm 0.00 in0.0 mm
05:25 PM 66.9°F19.4°C 56.0°F13.3°C 68% 5.0 mph E8.0 kmh E -- 30.56 in1034.9 mb 0.00 in0.0 mm 0.00 in0.0 mm 0.00 in0.0 mm
05:30 PM 67.6°F19.8°C 56.2°F13.4°C 67% 5.0 mph NE8.0 kmh NE -- 30.56 in1034.9 mb 0.00 in0.0 mm 0.00 in0.0 mm 0.00 in0.0 mm
05:35 PM 66.6°F19.2°C 56.0°F13.3°C 69% 5.0 mph NNE8.0 kmh NNE -- 30.57 in1035.2 mb 0.00 in0.0 mm 0.00 in0.0 mm 0.00 in0.0 mm
05:40 PM 67.5°F19.7°C 56.5°F13.6°C 68% 5.0 mph 8.0 kmh -- 30.57 in1035.2 mb 0.00 in0.0 mm 0.00 in0.0 mm 0.00 in0.0 mm
05:45 PM 66.7°F19.3°C 55.8°F13.2°C 68% 8.0 mph NE12.9 kmh NE -- 30.57 in1035.2 mb 0.00 in0.0 mm 0.00 in0.0 mm 0.00 in0.0 mm
05:50 PM 66.0°F18.9°C 55.5°F13.1°C 69% 7.0 mph ENE11.3 kmh ENE -- 30.57 in1035.2 mb 0.00 in0.0 mm 0.00 in0.0 mm 0.00 in0.0 mm
05:55 PM 66.7°F19.3°C 56.2°F13.4°C 69% 5.0 mph ENE8.0 kmh ENE -- 30.57 in1035.2 mb 0.00 in0.0 mm 0.00 in0.0 mm 0.00 in0.0 mm
06:00 PM 68.0°F20.0°C 56.6°F13.7°C 67% 6.0 mph ENE9.7 kmh ENE -- 30.56 in1034.9 mb 0.00 in0.0 mm 0.00 in0.0 mm 0.00 in0.0 mm
06:05 PM 68.2°F20.1°C 56.7°F13.7°C 67% 1.0 mph NNE1.6 kmh NNE -- 30.56 in1034.9 mb 0.00 in0.0 mm 0.00 in0.0 mm 0.00 in0.0 mm
06:10 PM 67.6°F19.8°C 56.6°F13.7°C 68% 2.0 mph ENE3.2 kmh ENE -- 30.57 in1035.2 mb 0.00 in0.0 mm 0.00 in0.0 mm 0.00 in0.0 mm
06:15 PM 68.2°F20.1°C 56.7°F13.7°C 67% 4.0 mph NE6.4 kmh NE -- 30.57 in1035.2 mb 0.00 in0.0 mm 0.00 in0.0 mm 0.00 in0.0 mm
06:20 PM 68.9°F20.5°C 57.0°F13.9°C 66% 6.0 mph NNE9.7 kmh NNE -- 30.57 in1035.2 mb 0.00 in0.0 mm 0.00 in0.0 mm 0.00 in0.0 mm
06:25 PM 68.5°F20.3°C 57.1°F13.9°C 67% 4.0 mph ENE6.4 kmh ENE -- 30.57 in1035.2 mb 0.00 in0.0 mm 0.00 in0.0 mm 0.00 in0.0 mm
06:30 PM 69.4°F20.8°C 57.5°F14.2°C 66% Calm Calm -- 30.57 in1035.2 mb 0.00 in0.0 mm 0.00 in0.0 mm 0.00 in0.0 mm
06:35 PM 68.2°F20.1°C 57.2°F14.0°C 68% 4.0 mph ESE6.4 kmh ESE -- 30.57 in1035.2 mb 0.00 in0.0 mm 0.00 in0.0 mm 0.00 in0.0 mm
06:40 PM 69.3°F20.7°C 57.8°F14.3°C 67% 4.0 mph NW6.4 kmh NW -- 30.57 in1035.2 mb 0.00 in0.0 mm 0.00 in0.0 mm 0.00 in0.0 mm
06:45 PM 68.4°F20.2°C 57.3°F14.1°C 68% 6.0 mph NNW9.7 kmh NNW -- 30.57 in1035.2 mb 0.00 in0.0 mm 0.00 in0.0 mm 0.00 in0.0 mm
06:50 PM 68.2°F20.1°C 58.0°F14.4°C 70% 5.0 mph ENE8.0 kmh ENE -- 30.57 in1035.2 mb 0.00 in0.0 mm 0.00 in0.0 mm 0.00 in0.0 mm
06:55 PM 69.3°F20.7°C 57.8°F14.3°C 67% Calm Calm -- 30.57 in1035.2 mb 0.00 in0.0 mm 0.00 in0.0 mm 0.00 in0.0 mm
07:00 PM 68.2°F20.1°C 57.6°F14.2°C 69% Calm Calm -- 30.57 in1035.2 mb 0.00 in0.0 mm 0.00 in0.0 mm 0.00 in0.0 mm
07:05 PM 70.0°F21.1°C 58.0°F14.4°C 66% Calm Calm -- 30.57 in1035.2 mb 0.00 in0.0 mm 0.00 in0.0 mm 0.00 in0.0 mm
07:10 PM 68.0°F20.0°C 57.8°F14.3°C 70% 6.0 mph E9.7 kmh E -- 30.57 in1035.2 mb 0.00 in0.0 mm 0.00 in0.0 mm 0.00 in0.0 mm
07:15 PM 69.6°F20.9°C 58.1°F14.5°C 67% 2.0 mph ENE3.2 kmh ENE -- 30.57 in1035.2 mb 0.00 in0.0 mm 0.00 in0.0 mm 0.00 in0.0 mm
07:20 PM 68.9°F20.5°C 58.3°F14.6°C 69% 7.0 mph NE11.3 kmh NE -- 30.57 in1035.2 mb 0.00 in0.0 mm 0.00 in0.0 mm 0.00 in0.0 mm
07:25 PM 68.4°F20.2°C 57.7°F14.3°C 69% 7.0 mph ENE11.3 kmh ENE -- 30.57 in1035.2 mb 0.00 in0.0 mm 0.00 in0.0 mm 0.00 in0.0 mm
07:30 PM 68.9°F20.5°C 57.8°F14.3°C 68% Calm Calm -- 30.57 in1035.2 mb 0.00 in0.0 mm 0.00 in0.0 mm 0.00 in0.0 mm
07:35 PM 69.1°F20.6°C 58.0°F14.4°C 68% 9.0 mph ENE14.5 kmh ENE -- 30.57 in1035.2 mb 0.00 in0.0 mm 0.00 in0.0 mm 0.00 in0.0 mm
07:40 PM 69.4°F20.8°C 58.4°F14.7°C 68% Calm Calm -- 30.57 in1035.2 mb 0.00 in0.0 mm 0.00 in0.0 mm 0.00 in0.0 mm
07:45 PM 69.4°F20.8°C 58.4°F14.7°C 68% Calm Calm -- 30.57 in1035.2 mb 0.00 in0.0 mm 0.00 in0.0 mm 0.00 in0.0 mm
07:50 PM 69.6°F20.9°C 58.5°F14.7°C 68% 7.0 mph E11.3 kmh E -- 30.57 in1035.2 mb 0.00 in0.0 mm 0.00 in0.0 mm 0.00 in0.0 mm
07:55 PM 68.5°F20.3°C 57.9°F14.4°C 69% Calm Calm -- 30.57 in1035.2 mb 0.00 in0.0 mm 0.00 in0.0 mm 0.00 in0.0 mm
08:00 PM 69.8°F21.0°C 58.3°F14.6°C 67% 5.0 mph ENE8.0 kmh ENE -- 30.57 in1035.2 mb 0.00 in0.0 mm 0.00 in0.0 mm 0.00 in0.0 mm
08:05 PM 69.3°F20.7°C 58.2°F14.6°C 68% 2.0 mph ENE3.2 kmh ENE -- 30.57 in1035.2 mb 0.00 in0.0 mm 0.00 in0.0 mm 0.00 in0.0 mm
08:10 PM 69.4°F20.8°C 58.4°F14.7°C 68% Calm Calm -- 30.57 in1035.2 mb 0.00 in0.0 mm 0.00 in0.0 mm 0.00 in0.0 mm
08:40 PM 70.5°F21.4°C 59.0°F15.0°C 67% Calm Calm -- 30.57 in1035.2 mb 0.00 in0.0 mm 0.00 in0.0 mm 0.00 in0.0 mm
10:10 PM 71.8°F22.1°C 57.6°F14.2°C 61% Calm Calm -- 30.56 in1034.9 mb 0.00 in0.0 mm 0.00 in0.0 mm 0.00 in0.0 mm
10:15 PM 71.6°F22.0°C 57.4°F14.1°C 61% Calm Calm -- 30.56 in1034.9 mb 0.00 in0.0 mm 0.00 in0.0 mm 0.00 in0.0 mm